Climatologie pour Saint-Brevin les Pins
Jour • Résumé pour mai 4, 2017 Système :  Métrique    Anglais   Mixte
« - 1 jour
+ 1 jour »
Jour Semaine Mois Année Personnalisé
  Maximum : Minimum : Moyenne :
Température sous abri : 18.6 °C 5.9 °C 12.2 °C
Point de rosée : 11.2 °C 5.3 °C 8.1 °C
Humidité : 96 % 52 % 78 %
Vitesse du vent : 25.7 km/h 0.0 km/h 6.9 km/h
Rafale : 30.6 km/h - -
Direction :- - ENE
Pression : 1017.8 hPa 1015.1 hPa -
Précipitations : 0.0 mm    
Historical Graphs
 
 
Tableau de données pour mai 4, 2017
Heure Tempé Pt rosée Pression Vent Vitesse Rafale Humidité Taux pluie (/hr) Soleil
00:05 10.1 °C 7.2 °C 1017.8 hPa NNE 6.4 km/h 14.5 km/h 82 % 0.0 mm 0 W/m2
00:10 10.1 °C 7.1 °C 1017.8 hPa NNE 6.4 km/h 17.7 km/h 82 % 0.0 mm 0 W/m2
00:15 9.9 °C 7.1 °C 1017.8 hPa ENE 6.4 km/h 17.7 km/h 83 % 0.0 mm 0 W/m2
00:20 9.8 °C 7.1 °C 1017.8 hPa NNE 6.4 km/h 16.1 km/h 83 % 0.0 mm 0 W/m2
00:30 9.6 °C 7.0 °C 1017.8 hPa NNE 12.9 km/h 14.5 km/h 84 % 0.0 mm 0 W/m2
00:35 9.5 °C 6.9 °C 1017.8 hPa NE 4.8 km/h 16.1 km/h 84 % 0.0 mm 0 W/m2
00:40 9.4 °C 7.0 °C 1017.8 hPa NNW 4.8 km/h 17.7 km/h 85 % 0.0 mm 0 W/m2
00:45 9.3 °C 6.9 °C 1017.8 hPa NNE 4.8 km/h 17.7 km/h 85 % 0.0 mm 0 W/m2
00:50 9.2 °C 6.9 °C 1017.8 hPa NE 3.2 km/h 16.1 km/h 86 % 0.0 mm 0 W/m2
00:55 9.1 °C 6.8 °C 1017.8 hPa NNE 3.2 km/h 12.9 km/h 86 % 0.0 mm 0 W/m2
01:00 8.9 °C 6.7 °C 1017.8 hPa Calm   17.7 km/h 86 % 0.0 mm 0 W/m2
01:05 9.0 °C 7.0 °C 1017.8 hPa NNE 6.4 km/h 17.7 km/h 87 % 0.0 mm 0 W/m2
01:10 8.9 °C 6.8 °C 1017.8 hPa NNE 6.4 km/h 17.7 km/h 87 % 0.0 mm 0 W/m2
01:15 8.8 °C 6.8 °C 1017.8 hPa NE 6.4 km/h 16.1 km/h 87 % 0.0 mm 0 W/m2
01:20 8.8 °C 7.0 °C 1017.8 hPa ENE 1.6 km/h 16.1 km/h 88 % 0.0 mm 0 W/m2
01:25 8.7 °C 6.8 °C 1017.8 hPa NE 11.3 km/h 14.5 km/h 88 % 0.0 mm 0 W/m2
01:30 8.8 °C 6.9 °C 1017.8 hPa ENE 4.8 km/h 17.7 km/h 88 % 0.0 mm 0 W/m2
01:35 8.7 °C 6.8 °C 1017.8 hPa North 6.4 km/h 17.7 km/h 88 % 0.0 mm 0 W/m2
01:40 8.7 °C 6.8 °C 1017.8 hPa NNE 9.7 km/h 17.7 km/h 88 % 0.0 mm 0 W/m2
01:45 8.6 °C 6.9 °C 1017.8 hPa NE 4.8 km/h 17.7 km/h 89 % 0.0 mm 0 W/m2
01:50 8.6 °C 6.9 °C 1017.8 hPa ENE 11.3 km/h 17.7 km/h 89 % 0.0 mm 0 W/m2
01:55 8.6 °C 6.8 °C 1017.8 hPa NE 6.4 km/h 14.5 km/h 89 % 0.0 mm 0 W/m2
02:00 8.5 °C 6.8 °C 1017.8 hPa ENE 8.0 km/h 14.5 km/h 89 % 0.0 mm 0 W/m2
02:05 8.4 °C 6.7 °C 1017.5 hPa NE 4.8 km/h 12.9 km/h 89 % 0.0 mm 0 W/m2
02:10 8.3 °C 6.8 °C 1017.5 hPa Calm   12.9 km/h 90 % 0.0 mm 0 W/m2
02:15 8.3 °C 6.7 °C 1017.5 hPa NE 4.8 km/h 14.5 km/h 90 % 0.0 mm 0 W/m2
02:20 8.3 °C 6.7 °C 1017.5 hPa NNE 3.2 km/h 14.5 km/h 90 % 0.0 mm 0 W/m2
02:25 8.2 °C 6.6 °C 1017.5 hPa NNW 1.6 km/h 9.7 km/h 90 % 0.0 mm 0 W/m2
02:30 8.1 °C 6.7 °C 1017.5 hPa ENE 3.2 km/h 9.7 km/h 91 % 0.0 mm 0 W/m2
02:35 8.0 °C 6.6 °C 1017.5 hPa NE 9.7 km/h 9.7 km/h 91 % 0.0 mm 0 W/m2
02:40 8.1 °C 6.7 °C 1017.5 hPa NNE 6.4 km/h 9.7 km/h 91 % 0.0 mm 0 W/m2
02:45 8.0 °C 6.6 °C 1017.5 hPa NE 3.2 km/h 9.7 km/h 91 % 0.0 mm 0 W/m2
02:50 7.9 °C 6.7 °C 1017.5 hPa Calm   9.7 km/h 92 % 0.0 mm 0 W/m2
02:55 7.8 °C 6.6 °C 1017.2 hPa Calm   9.7 km/h 92 % 0.0 mm 0 W/m2
03:00 7.8 °C 6.6 °C 1017.2 hPa Calm   11.3 km/h 92 % 0.0 mm 0 W/m2
03:05 7.7 °C 6.5 °C 1017.2 hPa ENE 1.6 km/h 11.3 km/h 92 % 0.0 mm 0 W/m2
03:10 7.7 °C 6.4 °C 1017.2 hPa NE 8.0 km/h 11.3 km/h 92 % 0.0 mm 0 W/m2
03:15 7.5 °C 6.3 °C 1017.2 hPa NE 6.4 km/h 11.3 km/h 92 % 0.0 mm 0 W/m2
03:20 7.4 °C 6.3 °C 1017.2 hPa NNE 4.8 km/h 9.7 km/h 93 % 0.0 mm 0 W/m2
03:25 7.3 °C 6.3 °C 1017.2 hPa NE 3.2 km/h 8.0 km/h 93 % 0.0 mm 0 W/m2
03:30 7.2 °C 6.2 °C 1017.2 hPa NE 1.6 km/h 6.4 km/h 93 % 0.0 mm 0 W/m2
03:35 7.1 °C 6.0 °C 1017.2 hPa NE 6.4 km/h 6.4 km/h 93 % 0.0 mm 0 W/m2
03:40 7.2 °C 6.3 °C 1017.2 hPa NNE 1.6 km/h 9.7 km/h 94 % 0.0 mm 0 W/m2
03:45 7.2 °C 6.1 °C 1017.2 hPa NNE 1.6 km/h 9.7 km/h 93 % 0.0 mm 0 W/m2
03:50 7.2 °C 6.3 °C 1017.2 hPa ENE 1.6 km/h 8.0 km/h 94 % 0.0 mm 0 W/m2
03:55 7.0 °C 6.1 °C 1017.2 hPa NNE 1.6 km/h 8.0 km/h 94 % 0.0 mm 0 W/m2
04:00 6.9 °C 6.0 °C 1017.2 hPa NE 3.2 km/h 11.3 km/h 94 % 0.0 mm 0 W/m2
04:05 6.9 °C 6.0 °C 1017.2 hPa Calm   11.3 km/h 94 % 0.0 mm 0 W/m2
04:10 7.0 °C 6.1 °C 1017.2 hPa NE 1.6 km/h 9.7 km/h 94 % 0.0 mm 0 W/m2
04:15 7.0 °C 6.1 °C 1017.2 hPa Calm   9.7 km/h 94 % 0.0 mm 0 W/m2
04:20 6.8 °C 5.9 °C 1017.2 hPa Calm   9.7 km/h 94 % 0.0 mm 0 W/m2
04:25 6.8 °C 5.9 °C 1017.2 hPa NE 1.6 km/h 9.7 km/h 94 % 0.0 mm 0 W/m2
04:30 6.8 °C 5.9 °C 1017.2 hPa NNE 4.8 km/h 9.7 km/h 94 % 0.0 mm 0 W/m2
04:35 6.7 °C 5.8 °C 1017.2 hPa NE 6.4 km/h 11.3 km/h 94 % 0.0 mm 0 W/m2
04:40 6.7 °C 6.0 °C 1017.2 hPa North 8.0 km/h 11.3 km/h 95 % 0.0 mm 0 W/m2
04:45 6.7 °C 6.0 °C 1017.2 hPa NNE 1.6 km/h 11.3 km/h 95 % 0.0 mm 0 W/m2
04:50 6.7 °C 6.0 °C 1017.2 hPa NNE 4.8 km/h 11.3 km/h 95 % 0.0 mm 0 W/m2
04:55 6.7 °C 5.9 °C 1017.2 hPa NE 1.6 km/h 8.0 km/h 95 % 0.0 mm 0 W/m2
05:00 6.6 °C 5.9 °C 1017.2 hPa NE 4.8 km/h 6.4 km/h 95 % 0.0 mm 0 W/m2
05:05 6.4 °C 5.7 °C 1016.8 hPa Calm   6.4 km/h 95 % 0.0 mm 0 W/m2
05:10 6.3 °C 5.6 °C 1016.8 hPa Calm   8.0 km/h 95 % 0.0 mm 0 W/m2
05:15 6.3 °C 5.5 °C 1016.8 hPa NE 1.6 km/h 8.0 km/h 95 % 0.0 mm 0 W/m2
05:20 6.3 °C 5.5 °C 1017.2 hPa NNE 3.2 km/h 8.0 km/h 95 % 0.0 mm 0 W/m2
05:25 6.3 °C 5.5 °C 1017.2 hPa NE 3.2 km/h 9.7 km/h 95 % 0.0 mm 0 W/m2
05:30 6.4 °C 5.8 °C 1016.8 hPa North 6.4 km/h 9.7 km/h 96 % 0.0 mm 0 W/m2
05:35 6.5 °C 5.9 °C 1016.8 hPa Calm   11.3 km/h 96 % 0.0 mm 0 W/m2
05:40 6.4 °C 5.6 °C 1016.8 hPa NE 8.0 km/h 11.3 km/h 95 % 0.0 mm 0 W/m2
05:45 6.4 °C 5.9 °C 1016.8 hPa NNE 8.0 km/h 11.3 km/h 96 % 0.0 mm 0 W/m2
05:50 6.4 °C 5.9 °C 1016.8 hPa ENE 1.6 km/h 9.7 km/h 96 % 0.0 mm 0 W/m2
05:55 6.5 °C 5.9 °C 1016.8 hPa NNE 1.6 km/h 9.7 km/h 96 % 0.0 mm 0 W/m2
06:00 6.3 °C 5.6 °C 1016.8 hPa NE 6.4 km/h 8.0 km/h 95 % 0.0 mm 0 W/m2
06:05 6.3 °C 5.7 °C 1016.8 hPa NE 6.4 km/h 9.7 km/h 96 % 0.0 mm 0 W/m2
06:10 6.1 °C 5.4 °C 1016.8 hPa NE 1.6 km/h 9.7 km/h 95 % 0.0 mm 0 W/m2
06:15 6.0 °C 5.3 °C 1016.8 hPa NE 1.6 km/h 8.0 km/h 95 % 0.0 mm 0 W/m2
06:20 6.1 °C 5.5 °C 1016.8 hPa Calm   8.0 km/h 96 % 0.0 mm 0 W/m2
06:25 5.9 °C 5.4 °C 1016.8 hPa Calm   8.0 km/h 96 % 0.0 mm 0 W/m2
06:30 5.9 °C 5.4 °C 1016.8 hPa NNE 6.4 km/h 8.0 km/h 96 % 0.0 mm 0 W/m2
06:35 6.0 °C 5.4 °C 1016.8 hPa NE 1.6 km/h 6.4 km/h 96 % 0.0 mm 0 W/m2
06:40 6.1 °C 5.5 °C 1016.8 hPa NE 3.2 km/h 6.4 km/h 96 % 0.0 mm 0 W/m2
06:45 6.1 °C 5.5 °C 1016.8 hPa NNE 4.8 km/h 8.0 km/h 96 % 0.0 mm 0 W/m2
06:50 6.2 °C 5.6 °C 1016.8 hPa ENE 6.4 km/h 12.9 km/h 96 % 0.0 mm 0 W/m2
06:55 6.4 °C 5.8 °C 1016.8 hPa Calm   12.9 km/h 96 % 0.0 mm 5 W/m2
07:00 6.5 °C 5.9 °C 1016.8 hPa Calm   12.9 km/h 96 % 0.0 mm 9 W/m2
07:05 6.6 °C 6.0 °C 1016.8 hPa ENE 6.4 km/h 12.9 km/h 96 % 0.0 mm 11 W/m2
07:10 6.6 °C 6.0 °C 1016.8 hPa ENE 1.6 km/h 12.9 km/h 96 % 0.0 mm 14 W/m2
07:15 6.6 °C 6.0 °C 1016.8 hPa NE 4.8 km/h 12.9 km/h 96 % 0.0 mm 18 W/m2
07:20 6.6 °C 6.0 °C 1016.8 hPa NE 4.8 km/h 8.0 km/h 96 % 0.0 mm 23 W/m2
07:25 6.6 °C 6.0 °C 1016.8 hPa NE 3.2 km/h 11.3 km/h 96 % 0.0 mm 28 W/m2
07:30 6.7 °C 6.1 °C 1016.8 hPa Calm   11.3 km/h 96 % 0.0 mm 32 W/m2
07:35 6.7 °C 6.1 °C 1016.8 hPa Calm   9.7 km/h 96 % 0.0 mm 33 W/m2
07:40 6.8 °C 6.2 °C 1016.8 hPa ENE 4.8 km/h 9.7 km/h 96 % 0.0 mm 37 W/m2
07:45 6.8 °C 6.2 °C 1016.8 hPa NE 6.4 km/h 12.9 km/h 96 % 0.0 mm 39 W/m2
07:50 6.9 °C 6.4 °C 1016.8 hPa ENE 6.4 km/h 12.9 km/h 96 % 0.0 mm 42 W/m2
07:55 7.0 °C 6.4 °C 1016.8 hPa East 8.0 km/h 12.9 km/h 96 % 0.0 mm 47 W/m2
08:00 7.1 °C 6.5 °C 1016.8 hPa ENE 4.8 km/h 12.9 km/h 96 % 0.0 mm 47 W/m2
08:10 7.1 °C 6.5 °C 1016.8 hPa ENE 8.0 km/h 12.9 km/h 96 % 0.0 mm 51 W/m2
08:15 7.2 °C 6.6 °C 1016.8 hPa ESE 3.2 km/h 11.3 km/h 96 % 0.0 mm 51 W/m2
08:20 7.3 °C 6.7 °C 1016.8 hPa NE 4.8 km/h 11.3 km/h 96 % 0.0 mm 53 W/m2
08:25 7.4 °C 6.8 °C 1016.8 hPa ENE 6.4 km/h 12.9 km/h 96 % 0.0 mm 56 W/m2
08:30 7.6 °C 7.0 °C 1016.8 hPa East 1.6 km/h 12.9 km/h 96 % 0.0 mm 216 W/m2
08:35 7.8 °C 7.2 °C 1016.8 hPa East 4.8 km/h 12.9 km/h 96 % 0.0 mm 225 W/m2
08:40 8.2 °C 7.6 °C 1016.8 hPa Calm   8.0 km/h 96 % 0.0 mm 244 W/m2
08:45 8.4 °C 7.8 °C 1016.8 hPa Calm   6.4 km/h 96 % 0.0 mm 253 W/m2
08:50 8.6 °C 7.8 °C 1016.8 hPa East 3.2 km/h 12.9 km/h 95 % 0.0 mm 276 W/m2
08:55 8.8 °C 8.1 °C 1016.8 hPa East 3.2 km/h 12.9 km/h 95 % 0.0 mm 294 W/m2
09:00 9.1 °C 8.1 °C 1016.8 hPa SE 6.4 km/h 11.3 km/h 94 % 0.0 mm 308 W/m2
09:05 9.3 °C 8.2 °C 1016.8 hPa East 4.8 km/h 11.3 km/h 93 % 0.0 mm 325 W/m2
09:10 9.6 °C 8.5 °C 1016.8 hPa NE 4.8 km/h 12.9 km/h 93 % 0.0 mm 330 W/m2
09:15 9.8 °C 8.6 °C 1016.8 hPa NE 4.8 km/h 14.5 km/h 92 % 0.0 mm 373 W/m2
09:20 9.9 °C 8.5 °C 1017.2 hPa Calm   14.5 km/h 91 % 0.0 mm 373 W/m2
09:25 10.2 °C 8.6 °C 1016.8 hPa Calm   14.5 km/h 90 % 0.0 mm 406 W/m2
09:30 10.4 °C 8.7 °C 1016.8 hPa East 3.2 km/h 11.3 km/h 89 % 0.0 mm 394 W/m2
09:35 10.8 °C 8.9 °C 1016.8 hPa ENE 4.8 km/h 11.3 km/h 88 % 0.0 mm 413 W/m2
09:40 10.8 °C 8.8 °C 1016.8 hPa ENE 11.3 km/h 14.5 km/h 87 % 0.0 mm 432 W/m2
09:45 11.2 °C 8.9 °C 1016.8 hPa ENE 8.0 km/h 14.5 km/h 86 % 0.0 mm 446 W/m2
09:50 11.4 °C 9.1 °C 1016.8 hPa ESE 1.6 km/h 12.9 km/h 86 % 0.0 mm 459 W/m2
09:55 11.7 °C 9.1 °C 1016.8 hPa ENE 12.9 km/h 14.5 km/h 84 % 0.0 mm 480 W/m2
10:00 11.8 °C 9.0 °C 1016.8 hPa East 8.0 km/h 14.5 km/h 83 % 0.0 mm 492 W/m2
10:05 12.1 °C 9.1 °C 1016.8 hPa NNE 4.8 km/h 14.5 km/h 82 % 0.0 mm 492 W/m2
10:10 12.1 °C 9.1 °C 1016.8 hPa ENE 6.4 km/h 14.5 km/h 82 % 0.0 mm 517 W/m2
10:15 12.3 °C 9.2 °C 1016.8 hPa East 3.2 km/h 14.5 km/h 81 % 0.0 mm 547 W/m2
10:20 12.5 °C 9.0 °C 1016.8 hPa East 8.0 km/h 17.7 km/h 79 % 0.0 mm 555 W/m2
10:25 12.7 °C 9.3 °C 1016.8 hPa East 12.9 km/h 17.7 km/h 80 % 0.0 mm 657 W/m2
10:30 12.2 °C 8.9 °C 1016.8 hPa ENE 4.8 km/h 16.1 km/h 80 % 0.0 mm 220 W/m2
10:35 12.0 °C 9.0 °C 1016.8 hPa SE 3.2 km/h 16.1 km/h 82 % 0.0 mm 599 W/m2
10:40 12.6 °C 9.1 °C 1016.8 hPa East 3.2 km/h 16.1 km/h 80 % 0.0 mm 619 W/m2
10:45 13.0 °C 9.4 °C 1016.8 hPa ENE 6.4 km/h 12.9 km/h 79 % 0.0 mm 621 W/m2
10:50 13.1 °C 9.1 °C 1016.8 hPa ENE 8.0 km/h 19.3 km/h 77 % 0.0 mm 668 W/m2
10:55 13.2 °C 9.2 °C 1016.8 hPa East 9.7 km/h 19.3 km/h 77 % 0.0 mm 705 W/m2
11:00 13.6 °C 9.5 °C 1016.8 hPa ENE 14.5 km/h 17.7 km/h 76 % 0.0 mm 798 W/m2
11:05 13.6 °C 9.4 °C 1016.8 hPa NE 9.7 km/h 20.9 km/h 76 % 0.0 mm 798 W/m2
11:10 13.3 °C 9.4 °C 1016.8 hPa ENE 14.5 km/h 20.9 km/h 77 % 0.0 mm 788 W/m2
11:15 13.5 °C 9.2 °C 1016.8 hPa East 11.3 km/h 24.1 km/h 75 % 0.0 mm 788 W/m2
11:20 13.8 °C 9.4 °C 1016.8 hPa ESE 11.3 km/h 24.1 km/h 75 % 0.0 mm 737 W/m2
11:25 13.5 °C 9.2 °C 1016.5 hPa NE 14.5 km/h 20.9 km/h 75 % 0.0 mm 213 W/m2
11:30 14.0 °C 9.4 °C 1016.5 hPa East 6.4 km/h 17.7 km/h 74 % 0.0 mm 807 W/m2
11:35 13.7 °C 9.4 °C 1016.5 hPa ENE 3.2 km/h 17.7 km/h 75 % 0.0 mm 359 W/m2
11:40 14.2 °C 9.6 °C 1016.5 hPa ENE 11.3 km/h 17.7 km/h 74 % 0.0 mm 744 W/m2
11:45 14.3 °C 9.7 °C 1016.5 hPa East 3.2 km/h 19.3 km/h 74 % 0.0 mm 770 W/m2
11:50 14.3 °C 9.3 °C 1016.5 hPa ENE 11.3 km/h 22.5 km/h 72 % 0.0 mm 816 W/m2
11:55 14.4 °C 9.0 °C 1016.5 hPa NE 14.5 km/h 22.5 km/h 70 % 0.0 mm 870 W/m2
12:00 14.8 °C 9.6 °C 1016.5 hPa ENE 6.4 km/h 29.0 km/h 71 % 0.0 mm 896 W/m2
12:05 14.8 °C 9.6 °C 1016.5 hPa East 6.4 km/h 29.0 km/h 71 % 0.0 mm 264 W/m2
12:10 14.5 °C 9.3 °C 1016.5 hPa NE 17.7 km/h 22.5 km/h 71 % 0.0 mm 257 W/m2
12:15 14.2 °C 9.2 °C 1016.5 hPa East 9.7 km/h 22.5 km/h 72 % 0.0 mm 299 W/m2
12:20 14.9 °C 10.3 °C 1016.5 hPa NE 6.4 km/h 20.9 km/h 74 % 0.0 mm 241 W/m2
12:25 14.9 °C 9.5 °C 1016.5 hPa NNE 11.3 km/h 24.1 km/h 70 % 0.0 mm 274 W/m2
12:35 15.1 °C 9.4 °C 1016.5 hPa ENE 14.5 km/h 20.9 km/h 69 % 0.0 mm 241 W/m2
12:40 14.6 °C 9.4 °C 1016.5 hPa NNE 3.2 km/h 20.9 km/h 71 % 0.0 mm 313 W/m2
12:45 14.4 °C 9.2 °C 1016.5 hPa East 16.1 km/h 20.9 km/h 71 % 0.0 mm 209 W/m2
12:50 14.2 °C 9.0 °C 1016.5 hPa East 22.5 km/h 25.7 km/h 71 % 0.0 mm 302 W/m2
12:55 14.9 °C 9.3 °C 1016.5 hPa East 17.7 km/h 25.7 km/h 69 % 0.0 mm 939 W/m2
13:00 15.1 °C 9.4 °C 1016.5 hPa SE 11.3 km/h 22.5 km/h 69 % 0.0 mm 960 W/m2
13:05 16.2 °C 10.0 °C 1016.5 hPa East 9.7 km/h 24.1 km/h 67 % 0.0 mm 1007 W/m2
13:10 16.7 °C 10.1 °C 1016.5 hPa NE 6.4 km/h 24.1 km/h 65 % 0.0 mm 366 W/m2
13:15 16.7 °C 11.2 °C 1016.5 hPa East 8.0 km/h 22.5 km/h 70 % 0.0 mm 993 W/m2
13:20 16.7 °C 9.8 °C 1016.5 hPa East 9.7 km/h 29.0 km/h 64 % 0.0 mm 967 W/m2
13:25 16.7 °C 9.6 °C 1016.5 hPa ENE 8.0 km/h 29.0 km/h 63 % 0.0 mm 967 W/m2
13:30 16.7 °C 9.8 °C 1016.5 hPa SE 11.3 km/h 29.0 km/h 64 % 0.0 mm 1011 W/m2
13:35 17.1 °C 10.0 °C 1016.5 hPa East 8.0 km/h 24.1 km/h 63 % 0.0 mm 1042 W/m2
13:40 17.3 °C 10.4 °C 1016.5 hPa East 11.3 km/h 24.1 km/h 64 % 0.0 mm 1041 W/m2
13:45 17.5 °C 10.1 °C 1016.1 hPa ENE 12.9 km/h 29.0 km/h 62 % 0.0 mm 1053 W/m2
13:50 17.1 °C 9.7 °C 1016.1 hPa NE 11.3 km/h 29.0 km/h 62 % 0.0 mm 348 W/m2
13:55 16.3 °C 9.7 °C 1016.1 hPa ENE 20.9 km/h 27.4 km/h 65 % 0.0 mm 255 W/m2
14:00 15.9 °C 9.8 °C 1016.1 hPa ESE 9.7 km/h 29.0 km/h 67 % 0.0 mm 311 W/m2
14:10 16.9 °C 9.8 °C 1016.1 hPa ENE 8.0 km/h 22.5 km/h 63 % 0.0 mm 341 W/m2
14:15 16.1 °C 9.5 °C 1016.1 hPa ENE 25.7 km/h 25.7 km/h 65 % 0.0 mm 355 W/m2
14:20 15.8 °C 9.5 °C 1016.1 hPa ENE 6.4 km/h 25.7 km/h 66 % 0.0 mm 257 W/m2
14:25 15.8 °C 9.5 °C 1016.1 hPa ENE 16.1 km/h 25.7 km/h 66 % 0.0 mm 381 W/m2
14:30 16.2 °C 9.6 °C 1016.1 hPa ESE 9.7 km/h 22.5 km/h 65 % 0.0 mm 540 W/m2
14:35 16.8 °C 10.4 °C 1016.1 hPa East 9.7 km/h 20.9 km/h 66 % 0.0 mm 642 W/m2
14:40 17.2 °C 10.6 °C 1016.1 hPa ENE 4.8 km/h 14.5 km/h 65 % 0.0 mm 573 W/m2
14:45 18.2 °C 10.6 °C 1016.1 hPa East 16.1 km/h 24.1 km/h 61 % 0.0 mm 1144 W/m2
14:50 18.1 °C 10.2 °C 1016.1 hPa East 12.9 km/h 24.1 km/h 60 % 0.0 mm 279 W/m2
14:55 16.7 °C 9.3 °C 1016.1 hPa ENE 11.3 km/h 24.1 km/h 62 % 0.0 mm 165 W/m2
15:00 16.0 °C 9.9 °C 1016.1 hPa ESE 11.3 km/h 24.1 km/h 67 % 0.0 mm 292 W/m2
15:05 16.1 °C 9.2 °C 1016.1 hPa ENE 14.5 km/h 24.1 km/h 64 % 0.0 mm 348 W/m2
15:10 16.3 °C 9.0 °C 1016.1 hPa NE 14.5 km/h 25.7 km/h 62 % 0.0 mm 427 W/m2
15:15 16.4 °C 9.6 °C 1016.1 hPa ENE 6.4 km/h 25.7 km/h 64 % 0.0 mm 360 W/m2
15:20 16.4 °C 9.4 °C 1016.1 hPa NE 3.2 km/h 22.5 km/h 63 % 0.0 mm 387 W/m2
15:25 16.7 °C 9.9 °C 1016.1 hPa ENE 6.4 km/h 14.5 km/h 64 % 0.0 mm 476 W/m2
15:30 17.2 °C 9.9 °C 1016.1 hPa East 11.3 km/h 16.1 km/h 62 % 0.0 mm 387 W/m2
15:35 16.9 °C 9.4 °C 1016.1 hPa ESE 8.0 km/h 20.9 km/h 61 % 0.0 mm 343 W/m2
15:40 17.2 °C 10.1 °C 1016.1 hPa SE 8.0 km/h 20.9 km/h 63 % 0.0 mm 976 W/m2
15:45 18.1 °C 10.2 °C 1016.1 hPa ENE 16.1 km/h 17.7 km/h 60 % 0.0 mm 976 W/m2
15:50 17.9 °C 9.0 °C 1016.1 hPa ESE 6.4 km/h 17.7 km/h 56 % 0.0 mm 265 W/m2
15:55 17.0 °C 9.2 °C 1016.1 hPa East 14.5 km/h 17.7 km/h 60 % 0.0 mm 262 W/m2
16:00 16.7 °C 8.9 °C 1016.1 hPa ESE 8.0 km/h 16.1 km/h 60 % 0.0 mm 325 W/m2
16:10 17.8 °C 9.4 °C 1015.8 hPa East 6.4 km/h 20.9 km/h 58 % 0.0 mm 768 W/m2
16:15 18.2 °C 9.5 °C 1015.8 hPa ENE 8.0 km/h 20.9 km/h 57 % 0.0 mm 823 W/m2
16:20 18.6 °C 10.4 °C 1015.8 hPa East 8.0 km/h 29.0 km/h 59 % 0.0 mm 881 W/m2
16:25 18.6 °C 9.9 °C 1015.8 hPa ENE 17.7 km/h 29.0 km/h 57 % 0.0 mm 410 W/m2
16:30 17.9 °C 10.1 °C 1015.8 hPa East 9.7 km/h 20.9 km/h 60 % 0.0 mm 239 W/m2
16:40 17.3 °C 9.4 °C 1015.8 hPa East 8.0 km/h 20.9 km/h 60 % 0.0 mm 360 W/m2
16:45 17.3 °C 9.5 °C 1015.8 hPa ENE 8.0 km/h 29.0 km/h 60 % 0.0 mm 369 W/m2
16:50 17.3 °C 9.7 °C 1015.8 hPa ESE 8.0 km/h 29.0 km/h 61 % 0.0 mm 707 W/m2
16:55 18.1 °C 9.7 °C 1015.8 hPa ESE 14.5 km/h 24.1 km/h 58 % 0.0 mm 758 W/m2
17:00 18.4 °C 10.5 °C 1015.8 hPa ENE 12.9 km/h 24.1 km/h 60 % 0.0 mm 717 W/m2
17:05 18.4 °C 9.4 °C 1015.8 hPa East 14.5 km/h 24.1 km/h 56 % 0.0 mm 371 W/m2
17:10 18.1 °C 10.2 °C 1015.8 hPa ESE 3.2 km/h 24.1 km/h 60 % 0.0 mm 599 W/m2
17:15 18.3 °C 10.2 °C 1015.8 hPa ENE 4.8 km/h 22.5 km/h 59 % 0.0 mm 615 W/m2
17:20 18.5 °C 10.1 °C 1015.5 hPa East 8.0 km/h 22.5 km/h 58 % 0.0 mm 724 W/m2
17:25 18.4 °C 9.8 °C 1015.8 hPa SE 17.7 km/h 25.7 km/h 57 % 0.0 mm 185 W/m2
17:30 17.9 °C 8.7 °C 1015.5 hPa ESE 8.0 km/h 25.7 km/h 55 % 0.0 mm 577 W/m2
17:40 18.2 °C 9.5 °C 1015.5 hPa East 9.7 km/h 20.9 km/h 57 % 0.0 mm 531 W/m2
17:45 18.3 °C 9.3 °C 1015.5 hPa SE 12.9 km/h 22.5 km/h 56 % 0.0 mm 522 W/m2
17:50 18.2 °C 9.3 °C 1015.5 hPa East 16.1 km/h 22.5 km/h 56 % 0.0 mm 508 W/m2
17:55 18.2 °C 9.6 °C 1015.5 hPa ESE 11.3 km/h 22.5 km/h 57 % 0.0 mm 492 W/m2
18:05 18.1 °C 9.1 °C 1015.5 hPa SE 11.3 km/h 20.9 km/h 56 % 0.0 mm 410 W/m2
18:10 17.9 °C 9.3 °C 1015.5 hPa East 14.5 km/h 20.9 km/h 57 % 0.0 mm 446 W/m2
18:15 18.1 °C 10.2 °C 1015.5 hPa SSE 16.1 km/h 20.9 km/h 60 % 0.0 mm 438 W/m2
18:20 17.7 °C 9.1 °C 1015.5 hPa East 11.3 km/h 22.5 km/h 57 % 0.0 mm 113 W/m2
18:25 17.6 °C 8.7 °C 1015.5 hPa ENE 11.3 km/h 22.5 km/h 56 % 0.0 mm 415 W/m2
18:30 17.9 °C 9.0 °C 1015.5 hPa ENE 4.8 km/h 22.5 km/h 56 % 0.0 mm 411 W/m2
18:35 18.1 °C 9.5 °C 1015.8 hPa ESE 22.5 km/h 24.1 km/h 57 % 0.0 mm 383 W/m2
18:40 17.9 °C 7.9 °C 1015.8 hPa ESE 8.0 km/h 24.1 km/h 52 % 0.0 mm 355 W/m2
18:45 17.8 °C 8.3 °C 1015.8 hPa ENE 8.0 km/h 22.5 km/h 54 % 0.0 mm 346 W/m2
18:50 17.9 °C 8.2 °C 1015.5 hPa East 11.3 km/h 20.9 km/h 53 % 0.0 mm 336 W/m2
18:55 17.9 °C 8.4 °C 1015.5 hPa East 12.9 km/h 24.1 km/h 54 % 0.0 mm 318 W/m2
19:00 17.9 °C 9.0 °C 1015.5 hPa ENE 4.8 km/h 24.1 km/h 56 % 0.0 mm 301 W/m2
19:05 17.9 °C 8.8 °C 1015.5 hPa ESE 11.3 km/h 20.9 km/h 55 % 0.0 mm 292 W/m2
19:10 17.8 °C 9.4 °C 1015.5 hPa East 12.9 km/h 17.7 km/h 58 % 0.0 mm 276 W/m2
19:15 17.6 °C 8.1 °C 1015.5 hPa East 14.5 km/h 30.6 km/h 54 % 0.0 mm 262 W/m2
19:20 17.4 °C 8.3 °C 1015.5 hPa ESE 8.0 km/h 30.6 km/h 55 % 0.0 mm 239 W/m2
19:25 17.4 °C 8.3 °C 1015.5 hPa SE 6.4 km/h 22.5 km/h 55 % 0.0 mm 232 W/m2
19:30 17.3 °C 8.7 °C 1015.5 hPa ENE 6.4 km/h 22.5 km/h 57 % 0.0 mm 220 W/m2
19:35 17.2 °C 8.6 °C 1015.1 hPa East 17.7 km/h 25.7 km/h 57 % 0.0 mm 176 W/m2
19:40 17.0 °C 8.4 °C 1015.1 hPa East 14.5 km/h 25.7 km/h 57 % 0.0 mm 167 W/m2
19:45 16.8 °C 8.8 °C 1015.1 hPa NE 6.4 km/h 20.9 km/h 59 % 0.0 mm 83 W/m2
19:50 16.7 °C 8.6 °C 1015.1 hPa East 8.0 km/h 20.9 km/h 59 % 0.0 mm 163 W/m2
19:55 16.7 °C 8.6 °C 1015.5 hPa ENE 6.4 km/h 20.9 km/h 59 % 0.0 mm 141 W/m2
20:00 16.6 °C 8.5 °C 1015.1 hPa North 6.4 km/h 20.9 km/h 59 % 0.0 mm 125 W/m2
20:05 16.5 °C 8.5 °C 1015.1 hPa East 17.7 km/h 20.9 km/h 59 % 0.0 mm 111 W/m2
20:10 16.4 °C 8.4 °C 1015.1 hPa East 4.8 km/h 20.9 km/h 59 % 0.0 mm 90 W/m2
20:15 16.3 °C 8.5 °C 1015.1 hPa East 9.7 km/h 17.7 km/h 60 % 0.0 mm 74 W/m2
20:20 16.2 °C 8.4 °C 1015.1 hPa ESE 16.1 km/h 17.7 km/h 60 % 0.0 mm 60 W/m2
20:25 16.1 °C 8.3 °C 1015.5 hPa ENE 4.8 km/h 22.5 km/h 60 % 0.0 mm 39 W/m2
20:30 15.8 °C 8.6 °C 1015.5 hPa ENE 11.3 km/h 22.5 km/h 62 % 0.0 mm 33 W/m2
20:35 15.6 °C 8.6 °C 1015.5 hPa ENE 1.6 km/h 16.1 km/h 63 % 0.0 mm 28 W/m2
20:40 15.3 °C 8.7 °C 1015.5 hPa ENE 3.2 km/h 16.1 km/h 65 % 0.0 mm 21 W/m2
20:45 14.9 °C 8.9 °C 1015.5 hPa ENE 3.2 km/h 12.9 km/h 67 % 0.0 mm 19 W/m2
20:50 14.6 °C 8.9 °C 1015.5 hPa NE 3.2 km/h 8.0 km/h 69 % 0.0 mm 16 W/m2
20:55 14.3 °C 9.1 °C 1015.5 hPa East 6.4 km/h 12.9 km/h 71 % 0.0 mm 14 W/m2
21:00 14.3 °C 9.1 °C 1015.5 hPa ENE 6.4 km/h 12.9 km/h 71 % 0.0 mm 12 W/m2
21:05 14.2 °C 8.8 °C 1015.5 hPa ENE 8.0 km/h 11.3 km/h 70 % 0.0 mm 9 W/m2
21:10 14.2 °C 8.8 °C 1015.8 hPa East 9.7 km/h 14.5 km/h 70 % 0.0 mm 7 W/m2
21:15 14.0 °C 8.8 °C 1015.8 hPa East 1.6 km/h 14.5 km/h 71 % 0.0 mm 5 W/m2
21:20 13.5 °C 8.8 °C 1015.8 hPa ENE 1.6 km/h 11.3 km/h 73 % 0.0 mm 0 W/m2
21:25 13.4 °C 8.8 °C 1015.8 hPa East 8.0 km/h 11.3 km/h 74 % 0.0 mm 0 W/m2
21:30 13.2 °C 9.1 °C 1015.8 hPa ENE 8.0 km/h 14.5 km/h 76 % 0.0 mm 0 W/m2
21:35 13.3 °C 9.3 °C 1015.8 hPa ENE 3.2 km/h 14.5 km/h 77 % 0.0 mm 0 W/m2
21:40 13.4 °C 9.5 °C 1015.8 hPa ESE 1.6 km/h 16.1 km/h 77 % 0.0 mm 0 W/m2
21:45 13.4 °C 9.5 °C 1016.1 hPa East 8.0 km/h 16.1 km/h 77 % 0.0 mm 0 W/m2
21:50 13.3 °C 9.4 °C 1016.1 hPa East 8.0 km/h 14.5 km/h 77 % 0.0 mm 0 W/m2
21:55 13.3 °C 9.4 °C 1016.1 hPa East 4.8 km/h 11.3 km/h 77 % 0.0 mm 0 W/m2
22:00 13.2 °C 9.4 °C 1016.5 hPa ENE 12.9 km/h 12.9 km/h 78 % 0.0 mm 0 W/m2
22:05 13.0 °C 9.3 °C 1016.5 hPa ENE 6.4 km/h 12.9 km/h 78 % 0.0 mm 0 W/m2
22:10 12.8 °C 9.3 °C 1016.5 hPa East 11.3 km/h 12.9 km/h 79 % 0.0 mm 0 W/m2
22:15 12.6 °C 9.2 °C 1016.5 hPa ENE 4.8 km/h 12.9 km/h 80 % 0.0 mm 0 W/m2
22:20 12.6 °C 9.4 °C 1016.5 hPa ENE 3.2 km/h 12.9 km/h 81 % 0.0 mm 0 W/m2
22:25 12.6 °C 9.4 °C 1016.5 hPa East 3.2 km/h 11.3 km/h 81 % 0.0 mm 0 W/m2
22:30 12.4 °C 9.2 °C 1016.5 hPa East 4.8 km/h 8.0 km/h 81 % 0.0 mm 0 W/m2
22:35 12.2 °C 9.2 °C 1016.5 hPa ENE 3.2 km/h 11.3 km/h 82 % 0.0 mm 0 W/m2
22:40 12.2 °C 9.2 °C 1016.5 hPa East 3.2 km/h 11.3 km/h 82 % 0.0 mm 0 W/m2
22:45 12.1 °C 9.1 °C 1016.5 hPa East 1.6 km/h 12.9 km/h 82 % 0.0 mm 0 W/m2
22:50 12.1 °C 9.1 °C 1016.5 hPa Calm   12.9 km/h 82 % 0.0 mm 0 W/m2
22:55 12.0 °C 9.0 °C 1016.5 hPa East 4.8 km/h 14.5 km/h 82 % 0.0 mm 0 W/m2
23:00 12.0 °C 9.2 °C 1016.5 hPa East 4.8 km/h 14.5 km/h 83 % 0.0 mm 0 W/m2
23:05 12.0 °C 9.0 °C 1016.5 hPa East 8.0 km/h 11.3 km/h 82 % 0.0 mm 0 W/m2
23:10 11.8 °C 9.0 °C 1016.5 hPa ENE 4.8 km/h 11.3 km/h 83 % 0.0 mm 0 W/m2
23:15 11.7 °C 8.9 °C 1016.5 hPa East 6.4 km/h 11.3 km/h 83 % 0.0 mm 0 W/m2
23:20 11.7 °C 8.9 °C 1016.5 hPa ESE 3.2 km/h 11.3 km/h 83 % 0.0 mm 0 W/m2
23:25 11.6 °C 8.8 °C 1016.5 hPa ENE 3.2 km/h 11.3 km/h 83 % 0.0 mm 0 W/m2
23:30 11.4 °C 8.8 °C 1016.5 hPa ENE 1.6 km/h 11.3 km/h 84 % 0.0 mm 0 W/m2
23:35 11.4 °C 8.8 °C 1016.5 hPa East 1.6 km/h 11.3 km/h 84 % 0.0 mm 0 W/m2
23:40 11.3 °C 8.7 °C 1016.5 hPa NE 4.8 km/h 11.3 km/h 84 % 0.0 mm 0 W/m2
23:45 11.2 °C 8.6 °C 1016.5 hPa ENE 4.8 km/h 11.3 km/h 84 % 0.0 mm 0 W/m2
23:50 11.2 °C 8.8 °C 1016.5 hPa East 3.2 km/h 11.3 km/h 85 % 0.0 mm 0 W/m2
23:55 11.2 °C 8.7 °C 1016.1 hPa East 4.8 km/h 12.9 km/h 85 % 0.0 mm 0 W/m2
Avec l'autorisation de Weather Underground - 1.75 mb